Time;durP1;ratioP1;P1;durP2;ratioP2;P2;SDS_P1;SDS_P2;PMS_P1;PMS_P2;Temp;Humidity;BMP_temperature;BMP_pressure;BME280_temperature;BME280_humidity;BME280_pressure;Samples;Min_cycle;Max_cycle;Signal;HPM_P1;HPM_P2
2022/09/14 00:00:02;;;;;;;0.70;0.70;;;;;;;15.27;67.10;98937.16;5077784;28;20687;-81
2022/09/14 00:02:29;;;;;;;0.53;0.53;;;;;;;15.29;67.22;98951.50;5077150;28;20203;-81
2022/09/14 00:04:56;;;;;;;0.73;0.60;;;;;;;15.20;67.71;98949.78;5075892;28;20198;-80
2022/09/14 00:07:24;;;;;;;0.60;0.60;;;;;;;15.12;67.38;98945.34;5075091;28;20710;-81
2022/09/14 00:09:51;;;;;;;0.60;0.60;;;;;;;15.09;68.18;98935.34;5075150;28;20242;-81
2022/09/14 00:12:18;;;;;;;0.93;0.83;;;;;;;14.94;68.19;98936.78;5075260;28;20214;-81
2022/09/14 00:14:45;;;;;;;0.70;0.70;;;;;;;14.88;68.17;98952.78;5074993;28;20203;-81
2022/09/14 00:17:12;;;;;;;0.57;0.50;;;;;;;14.85;68.90;98947.94;5075223;28;20214;-81
2022/09/14 00:19:39;;;;;;;0.83;0.77;;;;;;;14.73;69.54;98949.88;5073916;28;20386;-81
2022/09/14 00:22:06;;;;;;;1.03;0.70;;;;;;;14.67;69.68;98955.56;5074325;28;20203;-80
2022/09/14 00:24:34;;;;;;;0.93;0.70;;;;;;;14.57;70.39;98950.44;5074011;28;20248;-80
2022/09/14 00:27:02;;;;;;;0.60;0.60;;;;;;;14.48;70.07;98946.09;5074065;28;20735;-81
2022/09/14 00:29:30;;;;;;;0.77;0.70;;;;;;;14.46;70.53;98953.16;5075757;28;20642;-80
2022/09/14 00:31:57;;;;;;;0.57;0.57;;;;;;;14.41;71.16;98952.75;5076228;28;20217;-81
2022/09/14 00:34:24;;;;;;;0.47;0.47;;;;;;;14.42;71.04;98956.94;5076514;28;20209;-81
2022/09/14 00:36:52;;;;;;;0.40;0.40;;;;;;;14.38;71.41;98955.63;5076050;28;20222;-81
2022/09/14 00:39:22;;;;;;;1.17;0.67;;;;;;;14.32;71.87;98966.47;5075219;28;20205;-81
2022/09/14 00:41:52;;;;;;;1.13;0.80;;;;;;;14.35;71.58;98955.91;5075125;28;20626;-81
2022/09/14 00:44:56;;;;;;;0.70;0.70;;;;;;;14.29;72.25;98967.53;5074962;28;20268;-81
2022/09/14 00:47:23;;;;;;;0.73;0.73;;;;;;;14.25;72.15;98961.88;5074600;28;20236;-80
2022/09/14 00:49:50;;;;;;;0.50;0.50;;;;;;;14.23;72.35;98957.81;5075692;28;20592;-80
2022/09/14 00:52:20;;;;;;;0.90;0.63;;;;;;;14.16;72.85;98957.53;5074649;28;20202;-81
2022/09/14 00:54:49;;;;;;;0.60;0.60;;;;;;;14.11;72.98;98964.84;5074356;28;20201;-81
2022/09/14 00:57:19;;;;;;;1.00;0.80;;;;;;;14.15;72.53;98965.38;5074138;28;20612;-81
2022/09/14 00:59:49;;;;;;;0.73;0.73;;;;;;;14.14;72.90;98956.06;5073934;28;20209;-81
2022/09/14 01:02:18;;;;;;;1.03;0.87;;;;;;;14.07;73.09;98962.69;5074807;28;20582;-80
2022/09/14 01:04:46;;;;;;;0.50;0.50;;;;;;;13.99;73.53;98963.34;5073207;28;20206;-81
2022/09/14 01:07:26;;;;;;;0.50;0.50;;;;;;;13.94;73.91;98955.25;5073955;28;20208;-80
2022/09/14 01:10:03;;;;;;;0.53;0.53;;;;;;;13.91;73.84;98958.91;5077809;28;20204;-81
2022/09/14 01:12:42;;;;;;;2.40;0.30;;;;;;;13.80;74.47;98956.47;5076311;28;20242;-81
2022/09/14 01:15:17;;;;;;;1.03;0.80;;;;;;;13.73;74.78;98966.47;5075722;28;20712;-81
2022/09/14 01:17:50;;;;;;;0.50;0.50;;;;;;;13.77;75.00;98972.16;5075374;28;20218;-81
2022/09/14 01:20:25;;;;;;;0.60;0.60;;;;;;;13.80;74.72;98967.53;5074406;28;20234;-81
2022/09/14 01:23:02;;;;;;;0.53;0.53;;;;;;;13.80;75.12;98957.25;5075010;28;20199;-81
2022/09/14 01:25:45;;;;;;;0.67;0.67;;;;;;;13.86;74.85;98960.25;5074512;28;20271;-80
2022/09/14 01:28:22;;;;;;;0.63;0.63;;;;;;;13.79;75.09;98959.97;5074312;28;20195;-81
2022/09/14 01:30:52;;;;;;;0.60;0.60;;;;;;;13.75;75.27;98950.91;5074689;28;20250;-81
2022/09/14 01:33:27;;;;;;;0.67;0.57;;;;;;;13.77;74.91;98946.44;5075421;28;20603;-80
2022/09/14 01:35:57;;;;;;;0.70;0.50;;;;;;;13.67;75.32;98945.63;5074024;28;20226;-81
2022/09/14 01:38:30;;;;;;;1.23;0.70;;;;;;;13.63;75.39;98945.06;5073612;28;20487;-81
2022/09/14 01:40:59;;;;;;;1.57;0.73;;;;;;;13.59;75.97;98948.88;5073261;28;20294;-80
2022/09/14 01:43:32;;;;;;;0.47;0.47;;;;;;;13.60;75.69;98953.06;5072707;28;20196;-80
2022/09/14 01:46:03;;;;;;;0.53;0.53;;;;;;;13.59;75.77;98944.53;5078151;28;20220;-81
2022/09/14 01:48:35;;;;;;;0.63;0.40;;;;;;;13.57;76.03;98950.75;5076311;28;20229;-81
2022/09/14 01:51:07;;;;;;;1.47;1.03;;;;;;;13.64;75.54;98941.56;5075525;28;20237;-81
2022/09/14 01:53:39;;;;;;;0.33;0.33;;;;;;;13.66;76.08;98937.09;5074299;28;20202;-81
2022/09/14 01:56:14;;;;;;;1.03;0.47;;;;;;;13.63;76.28;98934.81;5074566;28;20221;-81
2022/09/14 01:58:47;;;;;;;0.70;0.50;;;;;;;13.62;76.21;98933.19;5073965;28;20587;-81
2022/09/14 02:01:18;;;;;;;0.40;0.40;;;;;;;13.56;76.01;98931.97;5073689;28;20215;-81
2022/09/14 02:03:50;;;;;;;0.70;0.60;;;;;;;13.53;76.23;98929.66;5073662;28;20209;-80
2022/09/14 02:06:24;;;;;;;0.90;0.43;;;;;;;13.55;76.34;98937.22;5073485;28;20293;-80
2022/09/14 02:08:52;;;;;;;0.60;0.60;;;;;;;13.56;76.47;98939.66;5074108;28;20205;-81
2022/09/14 02:11:19;;;;;;;0.40;0.40;;;;;;;13.58;76.47;98932.66;5073518;28;20244;-81
2022/09/14 02:13:47;;;;;;;0.50;0.50;;;;;;;13.58;76.47;98934.38;5074133;28;20677;-80
2022/09/14 02:16:14;;;;;;;0.40;0.40;;;;;;;13.55;76.88;98937.22;5073173;28;20237;-80
2022/09/14 02:18:42;;;;;;;0.40;0.40;;;;;;;13.54;76.73;98931.28;5073189;28;20204;-81
2022/09/14 02:21:14;;;;;;;1.33;0.70;;;;;;;13.51;77.16;98933.31;5073477;28;20218;-80
2022/09/14 02:23:42;;;;;;;0.53;0.50;;;;;;;13.53;76.56;98928.84;5072825;28;20368;-80
2022/09/14 02:26:10;;;;;;;0.60;0.60;;;;;;;13.51;76.79;98923.03;5075623;28;20218;-81
2022/09/14 02:28:37;;;;;;;0.40;0.40;;;;;;;13.53;76.86;98928.84;5074992;28;20203;-81
2022/09/14 02:31:17;;;;;;;0.47;0.40;;;;;;;13.52;77.18;98916.94;5074827;28;20580;-81
2022/09/14 02:33:52;;;;;;;0.50;0.50;;;;;;;13.49;77.51;98922.34;5074394;28;20204;-80
2022/09/14 02:36:39;;;;;;;0.50;0.50;;;;;;;13.46;77.22;98914.91;5073753;28;20639;-81
2022/09/14 02:39:14;;;;;;;0.40;0.40;;;;;;;13.51;77.69;98920.47;5074063;28;20653;-81
2022/09/14 02:41:48;;;;;;;0.60;0.50;;;;;;;13.47;77.32;98914.00;5073399;28;20227;-80
2022/09/14 02:44:22;;;;;;;0.80;0.50;;;;;;;13.43;77.96;98907.47;5073216;28;20678;-80
2022/09/14 02:46:58;;;;;;;0.47;0.47;;;;;;;13.45;77.77;98910.72;5072963;28;20220;-81
2022/09/14 02:49:30;;;;;;;0.80;0.60;;;;;;;13.44;77.66;98909.09;5072758;28;20598;-81
2022/09/14 02:52:03;;;;;;;0.73;0.73;;;;;;;13.41;77.96;98902.50;5072476;28;20238;-80
2022/09/14 02:54:35;;;;;;;1.00;0.70;;;;;;;13.33;78.23;98907.47;5073262;28;20569;-80
2022/09/14 02:57:03;;;;;;;0.57;0.57;;;;;;;13.30;78.31;98903.41;5073355;28;20228;-80
2022/09/14 02:59:29;;;;;;;0.80;0.80;;;;;;;13.35;78.10;98910.69;5072395;28;20551;-81
2022/09/14 03:01:59;;;;;;;1.13;0.60;;;;;;;13.31;78.77;98920.44;5072688;28;20223;-81
2022/09/14 03:04:27;;;;;;;0.80;0.80;;;;;;;13.32;78.49;98922.06;5074987;28;20595;-81
2022/09/14 03:06:53;;;;;;;0.43;0.43;;;;;;;13.34;78.37;98925.28;5075481;28;20215;-81
2022/09/14 03:09:20;;;;;;;0.80;0.50;;;;;;;13.42;78.43;98928.97;5075222;28;20570;-81
2022/09/14 03:11:47;;;;;;;0.57;0.57;;;;;;;13.38;78.35;98927.59;5073969;28;20261;-81
2022/09/14 03:14:14;;;;;;;1.20;0.30;;;;;;;13.36;78.61;98922.59;5073826;28;20199;-81
2022/09/14 03:16:41;;;;;;;0.70;0.70;;;;;;;13.35;78.83;98928.66;5074040;28;20226;-81
2022/09/14 03:19:11;;;;;;;0.40;0.40;;;;;;;13.37;78.47;98924.22;5072825;28;20203;-81
2022/09/14 03:21:39;;;;;;;0.50;0.50;;;;;;;13.39;78.40;98930.06;5072858;28;20227;-81
2022/09/14 03:24:06;;;;;;;0.60;0.60;;;;;;;13.38;78.39;98933.56;5073138;28;20203;-80
2022/09/14 03:26:35;;;;;;;0.50;0.50;;;;;;;13.42;78.23;98937.47;5072275;28;20308;-81
2022/09/14 03:29:03;;;;;;;1.20;1.07;;;;;;;13.41;77.99;98937.59;5072400;28;20206;-81
2022/09/14 03:31:30;;;;;;;0.47;0.47;;;;;;;13.38;78.25;98940.44;5071796;28;20226;-80
2022/09/14 03:33:59;;;;;;;1.13;0.80;;;;;;;13.35;78.68;98944.06;5072194;28;20199;-81
2022/09/14 03:36:29;;;;;;;0.90;0.60;;;;;;;13.27;78.74;98949.09;5075166;28;20222;-81
2022/09/14 03:39:00;;;;;;;1.07;0.77;;;;;;;13.28;78.88;98941.22;5074445;28;20597;-81
2022/09/14 03:41:28;;;;;;;0.67;0.67;;;;;;;13.32;78.79;98927.22;5077794;28;20253;-81
2022/09/14 03:43:54;;;;;;;0.43;0.40;;;;;;;13.34;78.43;98932.19;5077475;28;20208;-81
2022/09/14 03:46:23;;;;;;;0.87;0.73;;;;;;;13.30;78.80;98938.53;5077523;28;20713;-81
2022/09/14 03:48:50;;;;;;;0.53;0.53;;;;;;;13.30;78.77;98949.63;5076800;28;20200;-81
2022/09/14 03:51:17;;;;;;;0.90;0.67;;;;;;;13.29;78.90;98948.00;5076873;28;20249;-81
2022/09/14 03:53:46;;;;;;;0.73;0.43;;;;;;;13.30;78.87;98934.22;5076090;28;20205;-81
2022/09/14 03:56:16;;;;;;;0.80;0.80;;;;;;;13.31;79.08;98940.97;5076032;28;20223;-81
2022/09/14 03:58:44;;;;;;;0.33;0.33;;;;;;;13.27;78.78;98942.19;5074976;28;20235;-81
2022/09/14 04:01:14;;;;;;;0.90;0.90;;;;;;;13.27;78.97;98949.88;5075941;28;20227;-81
2022/09/14 04:03:42;;;;;;;0.60;0.60;;;;;;;13.21;79.12;98940.13;5076063;28;20187;-80
2022/09/14 04:06:09;;;;;;;0.50;0.50;;;;;;;13.26;79.10;98958.50;5075312;28;20768;-81
2022/09/14 04:08:37;;;;;;;0.80;0.50;;;;;;;13.25;79.41;98949.19;5076035;28;20195;-81
2022/09/14 04:11:09;;;;;;;0.60;0.60;;;;;;;13.25;79.78;98946.63;5074750;28;20237;-80
2022/09/14 04:13:36;;;;;;;0.20;0.20;;;;;;;13.27;79.55;98949.88;5079988;28;20203;-82
2022/09/14 04:16:04;;;;;;;0.90;0.90;;;;;;;13.26;79.63;98948.25;5077556;28;20227;-81
2022/09/14 04:18:31;;;;;;;0.63;0.63;;;;;;;13.28;79.42;98954.06;5077161;28;20791;-81
2022/09/14 04:20:59;;;;;;;0.50;0.50;;;;;;;13.33;79.75;98957.06;5076808;28;20233;-81
2022/09/14 04:23:26;;;;;;;0.50;0.50;;;;;;;13.40;80.01;98953.97;5075734;28;20212;-81
2022/09/14 04:25:54;;;;;;;0.53;0.47;;;;;;;13.35;79.52;98962.06;5076086;28;20230;-81
2022/09/14 04:28:23;;;;;;;0.33;0.33;;;;;;;13.36;79.70;98954.22;5075674;28;20199;-81
2022/09/14 04:30:57;;;;;;;0.63;0.63;;;;;;;13.46;79.22;98959.38;5074627;28;20694;-81
2022/09/14 04:33:24;;;;;;;0.70;0.60;;;;;;;13.50;79.14;98975.34;5074943;28;20646;-81
2022/09/14 04:36:00;;;;;;;0.33;0.33;;;;;;;13.53;79.32;98972.53;5075289;28;20234;-81
2022/09/14 04:38:27;;;;;;;0.53;0.53;;;;;;;13.57;78.83;98963.59;5075101;28;20271;-81
2022/09/14 04:40:55;;;;;;;0.67;0.63;;;;;;;13.69;79.39;98972.00;5075893;28;20227;-81
2022/09/14 04:43:23;;;;;;;1.00;0.83;;;;;;;13.72;78.34;98979.44;5078728;28;20667;-81
2022/09/14 04:45:51;;;;;;;0.50;0.50;;;;;;;13.70;78.37;98976.19;5077076;28;20230;-81
2022/09/14 04:48:18;;;;;;;0.80;0.70;;;;;;;13.84;78.41;98978.34;5076918;28;20203;-81
2022/09/14 04:50:45;;;;;;;0.53;0.53;;;;;;;13.93;78.06;98980.16;5076519;28;20220;-81
2022/09/14 04:53:12;;;;;;;0.80;0.77;;;;;;;14.03;77.92;98987.84;5075114;28;20233;-81
2022/09/14 04:55:39;;;;;;;1.33;1.13;;;;;;;14.17;77.55;98984.88;5075803;28;20230;-81
2022/09/14 04:58:06;;;;;;;0.77;0.70;;;;;;;14.34;78.10;98979.97;5075252;28;20200;-81
2022/09/14 05:00:35;;;;;;;0.93;0.73;;;;;;;14.51;77.63;98986.97;5076615;28;20223;-81
2022/09/14 05:03:04;;;;;;;1.03;0.80;;;;;;;14.69;76.61;98987.94;5074108;28;20208;-81
2022/09/14 05:05:30;;;;;;;0.60;0.60;;;;;;;14.91;76.15;98989.34;5074643;28;20312;-81
2022/09/14 05:07:57;;;;;;;0.90;0.67;;;;;;;15.10;75.25;98988.47;5074847;28;20210;-81
2022/09/14 05:10:24;;;;;;;0.73;0.73;;;;;;;15.31;75.50;98990.00;5074009;28;20227;-80
2022/09/14 05:12:51;;;;;;;0.87;0.73;;;;;;;15.44;73.99;98995.63;5074131;28;20321;-81
2022/09/14 05:15:18;;;;;;;0.73;0.73;;;;;;;15.65;74.43;98991.97;5075799;28;20222;-81
2022/09/14 05:17:46;;;;;;;1.23;0.80;;;;;;;15.84;72.80;99000.44;5077450;28;20203;-81
2022/09/14 05:20:13;;;;;;;0.83;0.77;;;;;;;16.07;71.47;98998.22;5076767;28;20233;-81
2022/09/14 05:22:40;;;;;;;0.83;0.83;;;;;;;16.24;70.00;98998.38;5076423;28;20214;-81
2022/09/14 05:25:07;;;;;;;0.80;0.60;;;;;;;16.44;68.95;98999.00;5075825;28;20227;-81
2022/09/14 05:27:34;;;;;;;0.60;0.60;;;;;;;16.58;68.46;99001.03;5075237;28;20203;-81
2022/09/14 05:30:01;;;;;;;1.20;1.10;;;;;;;16.85;68.56;99002.69;5075741;28;20234;-81
2022/09/14 05:32:27;;;;;;;1.13;1.00;;;;;;;17.01;67.69;99007.09;5073783;28;20237;-81
2022/09/14 05:34:56;;;;;;;0.57;0.57;;;;;;;17.34;67.75;99013.25;5073695;28;20672;-81
2022/09/14 05:37:23;;;;;;;0.80;0.70;;;;;;;17.37;64.86;99023.28;5073658;28;20218;-81
2022/09/14 05:39:50;;;;;;;1.10;1.00;;;;;;;17.67;66.33;99020.28;5072898;28;20206;-81
2022/09/14 05:42:16;;;;;;;1.37;0.90;;;;;;;17.80;63.16;99018.06;5072446;28;20207;-81
2022/09/14 05:44:43;;;;;;;1.07;0.90;;;;;;;17.93;63.74;99025.38;5073535;28;20669;-84
2022/09/14 05:47:10;;;;;;;1.13;1.00;;;;;;;18.24;64.16;99025.59;5078900;28;20214;-84
2022/09/14 05:49:37;;;;;;;1.37;1.00;;;;;;;18.48;61.02;99027.34;5075808;28;20650;-83
2022/09/14 05:52:05;;;;;;;1.37;0.73;;;;;;;18.61;61.49;99032.81;5076350;28;20243;-84
2022/09/14 05:54:32;;;;;;;0.73;0.73;;;;;;;18.84;59.93;99037.38;5075168;28;20742;-84
2022/09/14 05:56:59;;;;;;;0.67;0.67;;;;;;;19.11;59.23;99031.81;5073872;28;20717;-83
2022/09/14 05:59:30;;;;;;;0.90;0.77;;;;;;;19.23;59.51;99021.88;5073490;28;20216;-84
2022/09/14 06:01:57;;;;;;;0.70;0.70;;;;;;;19.37;58.37;99035.91;5073597;28;20217;-84
2022/09/14 06:04:24;;;;;;;0.60;0.60;;;;;;;19.55;57.73;99031.28;5073213;28;20210;-84
2022/09/14 06:06:51;;;;;;;0.87;0.87;;;;;;;19.80;58.46;99029.38;5072855;28;20219;-84
2022/09/14 06:09:19;;;;;;;0.63;0.60;;;;;;;19.87;55.57;99025.16;5073958;28;20600;-84
2022/09/14 06:11:46;;;;;;;1.07;0.70;;;;;;;20.00;55.27;99029.75;5074384;28;20243;-84
2022/09/14 06:14:18;;;;;;;1.00;1.00;;;;;;;20.24;55.69;99025.34;5074887;28;20208;-86
2022/09/14 06:16:45;;;;;;;1.13;1.07;;;;;;;20.25;54.97;99027.00;5074504;28;20233;-84
2022/09/14 06:19:14;;;;;;;1.00;0.90;;;;;;;20.24;54.72;99030.56;5072844;28;20667;-84
2022/09/14 06:21:41;;;;;;;0.80;0.80;;;;;;;20.45;54.88;99028.13;5071645;28;20225;-84
2022/09/14 06:24:11;;;;;;;1.00;0.87;;;;;;;20.70;53.28;99027.91;5073454;28;20212;-84
2022/09/14 06:26:40;;;;;;;0.97;0.90;;;;;;;20.82;53.18;99025.69;5071241;28;20329;-84
2022/09/14 06:29:07;;;;;;;0.70;0.70;;;;;;;20.78;52.67;99027.84;5071987;28;20206;-84
2022/09/14 06:31:34;;;;;;;1.00;0.90;;;;;;;21.03;53.24;99031.81;5071546;28;20659;-84
2022/09/14 06:34:02;;;;;;;0.73;0.73;;;;;;;21.29;54.36;99029.72;5071534;28;20209;-84
2022/09/14 06:36:29;;;;;;;1.20;0.80;;;;;;;21.56;52.84;99025.69;5071498;28;20276;-84
2022/09/14 06:38:58;;;;;;;0.77;0.77;;;;;;;21.82;54.59;99018.16;5070912;28;20212;-84
2022/09/14 06:41:29;;;;;;;1.23;1.13;;;;;;;21.91;50.08;99021.44;5070695;28;20226;-84
2022/09/14 06:44:00;;;;;;;0.97;0.90;;;;;;;22.18;50.82;99022.50;5070611;28;20202;-84
2022/09/14 06:46:29;;;;;;;0.90;0.80;;;;;;;22.43;50.75;99022.09;5070550;28;20312;-85
2022/09/14 06:48:58;;;;;;;0.80;0.80;;;;;;;22.64;49.74;99024.69;5071378;28;20203;-84
2022/09/14 06:51:26;;;;;;;1.10;1.00;;;;;;;22.85;50.00;99020.41;5071400;28;20226;-84
2022/09/14 06:53:55;;;;;;;1.10;1.00;;;;;;;22.60;47.30;99018.22;5070555;28;20586;-84
2022/09/14 06:56:22;;;;;;;1.00;0.90;;;;;;;22.87;49.72;99029.63;5071735;28;20618;-81
2022/09/14 06:58:51;;;;;;;0.80;0.70;;;;;;;23.13;47.64;99029.00;5070751;28;20195;-81
2022/09/14 07:01:20;;;;;;;1.00;0.80;;;;;;;23.17;48.83;99035.44;5071256;28;20218;-81
2022/09/14 07:03:47;;;;;;;0.90;0.90;;;;;;;23.21;48.13;99025.41;5070542;28;20202;-81
2022/09/14 07:06:16;;;;;;;0.70;0.70;;;;;;;23.47;48.99;99035.97;5070001;28;20229;-81
2022/09/14 07:08:44;;;;;;;0.90;0.85;;;;;;;23.92;47.05;99027.69;5069803;28;20198;-81
2022/09/14 07:11:12;;;;;;;0.70;0.70;;;;;;;24.21;46.22;99034.34;5069984;28;20226;-81
2022/09/14 07:13:40;;;;;;;0.73;0.73;;;;;;;23.86;46.15;99025.88;5070012;28;20245;-81
2022/09/14 07:16:07;;;;;;;0.80;0.80;;;;;;;24.08;46.50;99035.13;5073158;28;20492;-85
2022/09/14 07:18:36;;;;;;;0.63;0.55;;;;;;;24.39;45.00;99036.34;5073567;28;20199;-85
2022/09/14 07:21:04;;;;;;;1.23;1.00;;;;;;;24.31;44.65;99036.53;5074325;28;20227;-84
2022/09/14 07:23:31;;;;;;;1.00;0.90;;;;;;;24.28;46.35;99042.19;5073626;28;20222;-84
2022/09/14 07:26:03;;;;;;;1.30;0.90;;;;;;;24.35;44.76;99043.00;5073224;28;20223;-84
2022/09/14 07:28:30;;;;;;;1.00;0.82;;;;;;;24.45;44.49;99032.97;5074103;28;20282;-84
2022/09/14 07:30:58;;;;;;;1.17;0.95;;;;;;;24.52;45.45;99030.34;5073775;28;20215;-85
2022/09/14 07:33:25;;;;;;;0.70;0.70;;;;;;;24.68;46.34;99031.75;5073529;28;20230;-83
2022/09/14 07:35:53;;;;;;;0.95;0.90;;;;;;;24.75;43.48;99033.31;5073759;28;20611;-83
2022/09/14 07:38:21;;;;;;;0.75;0.75;;;;;;;24.85;43.76;99033.72;5073714;28;20206;-83
2022/09/14 07:40:47;;;;;;;0.77;0.73;;;;;;;24.83;43.16;99037.53;5073380;28;20234;-83
2022/09/14 07:43:14;;;;;;;0.73;0.65;;;;;;;24.92;44.12;99033.69;5073540;28;20199;-83
2022/09/14 07:45:41;;;;;;;1.10;0.98;;;;;;;25.12;42.48;99030.22;5073526;28;20223;-83
2022/09/14 07:48:08;;;;;;;0.85;0.85;;;;;;;25.46;43.63;99027.31;5073221;28;20206;-83
2022/09/14 07:50:35;;;;;;;1.15;0.90;;;;;;;25.83;41.94;99027.53;5073275;28;20225;-83
2022/09/14 07:53:03;;;;;;;0.80;0.80;;;;;;;26.16;40.35;99016.81;5073185;28;20222;-83
2022/09/14 07:55:31;;;;;;;1.25;0.90;;;;;;;26.29;39.80;99033.44;5073207;28;20241;-83
2022/09/14 07:57:58;;;;;;;0.80;0.80;;;;;;;26.45;39.49;99026.88;5073073;28;20195;-83
2022/09/14 08:00:26;;;;;;;0.82;0.80;;;;;;;26.42;39.89;99034.16;5072876;28;20219;-84
2022/09/14 08:02:54;;;;;;;0.85;0.80;;;;;;;26.68;42.05;99021.06;5073389;28;20202;-84
2022/09/14 08:05:21;;;;;;;1.00;0.80;;;;;;;26.96;42.13;99023.97;5073020;28;20219;-84
2022/09/14 08:07:52;;;;;;;0.80;0.70;;;;;;;26.87;39.69;99020.81;5072860;28;20195;-84
2022/09/14 08:10:21;;;;;;;0.90;0.90;;;;;;;26.90;40.36;99013.53;5073186;28;20230;-83
2022/09/14 08:12:50;;;;;;;0.80;0.80;;;;;;;27.07;38.42;99010.09;5072882;28;20237;-83
2022/09/14 08:15:18;;;;;;;0.70;0.70;;;;;;;26.92;37.65;99017.56;5072535;28;20215;-84
2022/09/14 08:17:44;;;;;;;0.98;0.80;;;;;;;27.13;39.48;99011.06;5072735;28;20670;-84
2022/09/14 08:20:11;;;;;;;1.42;0.90;;;;;;;27.01;40.64;99026.72;5072965;28;20227;-83
2022/09/14 08:22:39;;;;;;;0.98;0.90;;;;;;;26.87;37.01;99015.56;5073911;28;20202;-83
2022/09/14 08:25:07;;;;;;;0.90;0.80;;;;;;;27.03;36.57;99013.41;5072678;28;20222;-84
2022/09/14 08:27:35;;;;;;;0.88;0.80;;;;;;;27.02;39.32;99014.41;5071578;28;20199;-84
2022/09/14 08:30:02;;;;;;;1.00;0.82;;;;;;;27.39;38.82;99006.53;5072228;28;20223;-83
2022/09/14 08:32:29;;;;;;;1.10;0.77;;;;;;;27.64;38.28;98999.31;5072482;28;20234;-83
2022/09/14 08:34:56;;;;;;;0.65;0.65;;;;;;;27.59;35.01;99001.81;5072575;28;20203;-85
2022/09/14 08:37:22;;;;;;;0.88;0.88;;;;;;;27.70;38.54;98992.38;5072757;28;20595;-84
2022/09/14 08:39:50;;;;;;;1.17;1.08;;;;;;;27.97;37.58;98992.78;5072192;28;20202;-83
2022/09/14 08:42:19;;;;;;;0.80;0.80;;;;;;;28.33;38.48;99001.50;5072084;28;20207;-83
2022/09/14 08:44:53;;;;;;;0.80;0.80;;;;;;;28.41;36.95;98999.38;5072032;28;20213;-84
2022/09/14 08:47:26;;;;;;;1.08;0.90;;;;;;;28.60;35.48;99001.88;5072603;28;20203;-84
2022/09/14 08:50:01;;;;;;;1.15;0.88;;;;;;;28.49;36.75;99000.06;5072103;28;20195;-83
2022/09/14 08:52:34;;;;;;;0.93;0.90;;;;;;;28.35;36.30;99000.25;5071750;28;20226;-84
2022/09/14 08:55:14;;;;;;;1.13;1.02;;;;;;;28.43;38.45;99002.56;5071838;28;20230;-84
2022/09/14 08:57:46;;;;;;;0.80;0.80;;;;;;;28.33;36.46;99001.50;5071768;28;20203;-84
2022/09/14 09:00:18;;;;;;;1.15;1.05;;;;;;;28.31;34.79;99006.22;5071846;28;20325;-84
2022/09/14 09:03:14;;;;;;;1.05;0.95;;;;;;;28.30;36.94;99008.00;5072162;28;20206;-84
2022/09/14 09:05:48;;;;;;;1.20;0.95;;;;;;;28.17;36.05;99003.78;5071801;28;20222;-84
2022/09/14 09:08:21;;;;;;;1.02;0.90;;;;;;;28.33;39.65;99006.75;5071578;28;20207;-83
2022/09/14 09:10:52;;;;;;;0.95;0.90;;;;;;;28.70;36.18;99006.56;5071299;28;20234;-83
2022/09/14 09:13:23;;;;;;;1.00;0.90;;;;;;;28.84;36.33;99008.72;5071824;28;20231;-84
2022/09/14 09:15:54;;;;;;;1.23;1.00;;;;;;;28.95;36.81;99009.72;5071602;28;20230;-84
2022/09/14 09:18:34;;;;;;;0.85;0.85;;;;;;;29.13;38.46;99010.63;5071705;28;20644;-83
2022/09/14 09:21:07;;;;;;;0.85;0.85;;;;;;;29.02;35.83;99005.16;5071397;28;20222;-84
2022/09/14 09:23:34;;;;;;;1.98;0.82;;;;;;;28.69;34.74;99004.97;5071151;28;20195;-83
2022/09/14 09:26:05;;;;;;;0.68;0.68;;;;;;;28.69;35.34;99010.22;5071512;28;20408;-84
2022/09/14 09:28:33;;;;;;;0.95;0.77;;;;;;;28.67;35.77;98998.09;5071233;28;20245;-84
2022/09/14 09:31:05;;;;;;;0.98;0.77;;;;;;;28.67;34.62;99000.72;5071402;28;20219;-84
2022/09/14 09:33:33;;;;;;;0.93;0.80;;;;;;;28.94;35.34;99007.31;5071537;28;20246;-83
2022/09/14 09:36:00;;;;;;;0.93;0.80;;;;;;;28.94;34.06;99007.31;5071210;28;20702;-83
2022/09/14 09:38:28;;;;;;;0.80;0.80;;;;;;;28.64;36.04;99003.00;5070695;28;20210;-83
2022/09/14 09:40:58;;;;;;;0.82;0.82;;;;;;;28.92;33.91;99004.94;5071337;28;20218;-83
2022/09/14 09:43:25;;;;;;;0.90;0.90;;;;;;;29.29;36.54;99004.59;5071517;28;20206;-83
2022/09/14 09:45:56;;;;;;;1.13;0.90;;;;;;;29.29;35.54;98994.06;5071062;28;20237;-83
2022/09/14 09:48:28;;;;;;;1.10;1.00;;;;;;;29.36;35.42;99010.53;5070795;28;20504;-83
2022/09/14 09:51:06;;;;;;;1.05;0.80;;;;;;;29.57;35.35;99001.16;5071228;28;20227;-83
2022/09/14 09:53:36;;;;;;;0.73;0.73;;;;;;;28.88;34.03;98993.25;5070976;28;20233;-84
2022/09/14 09:56:05;;;;;;;0.90;0.90;;;;;;;28.65;34.26;98991.44;5071090;28;20234;-84
2022/09/14 09:58:35;;;;;;;0.80;0.80;;;;;;;28.98;35.05;98996.09;5071062;28;20345;-84
2022/09/14 10:01:05;;;;;;;1.20;1.10;;;;;;;29.14;34.97;98996.41;5071146;28;20230;-84
2022/09/14 10:03:36;;;;;;;0.82;0.82;;;;;;;29.21;34.21;98992.63;5070866;28;20203;-83
2022/09/14 10:06:07;;;;;;;0.75;0.75;;;;;;;29.33;34.76;98989.94;5070998;28;20219;-84
2022/09/14 10:08:41;;;;;;;0.90;0.90;;;;;;;29.94;35.47;98979.69;5070511;28;20206;-84
2022/09/14 10:11:29;;;;;;;0.75;0.70;;;;;;;29.43;33.11;98984.84;5070947;28;20227;-84
2022/09/14 10:13:56;;;;;;;1.40;1.00;;;;;;;29.68;36.59;98989.81;5070218;28;20258;-84
2022/09/14 10:16:25;;;;;;;1.13;1.00;;;;;;;29.99;35.90;98980.56;5070088;28;20230;-84
2022/09/14 10:18:54;;;;;;;1.10;1.00;;;;;;;29.96;35.79;98988.94;5070636;28;20219;-84
2022/09/14 10:21:22;;;;;;;0.98;0.90;;;;;;;29.96;34.13;98973.13;5070319;28;20219;-83
2022/09/14 10:24:05;;;;;;;0.82;0.82;;;;;;;29.94;34.36;98969.13;5070316;28;20194;-83
2022/09/14 10:26:36;;;;;;;1.58;1.05;;;;;;;29.85;33.54;98974.00;5070790;28;20296;-83
2022/09/14 10:29:27;;;;;;;0.82;0.80;;;;;;;29.88;35.19;98965.63;5070907;28;20206;-83
2022/09/14 10:31:59;;;;;;;1.30;1.00;;;;;;;29.76;35.70;98983.34;5070465;28;20222;-84
2022/09/14 10:34:29;;;;;;;1.05;1.00;;;;;;;30.00;35.06;98968.97;5070184;28;20238;-83
2022/09/14 10:37:20;;;;;;;1.13;1.00;;;;;;;30.18;34.04;98964.47;5070299;28;20685;-84
2022/09/14 10:39:56;;;;;;;0.80;0.80;;;;;;;29.78;35.05;98968.09;5070203;28;20623;-84
2022/09/14 10:42:31;;;;;;;0.88;0.88;;;;;;;30.03;36.42;98961.63;5070377;28;20210;-83
2022/09/14 10:45:14;;;;;;;0.77;0.77;;;;;;;30.30;34.64;98959.94;5070369;28;20202;-83
2022/09/14 10:48:05;;;;;;;1.05;0.98;;;;;;;30.21;33.59;98958.75;5070203;28;20268;-84
2022/09/14 10:50:53;;;;;;;1.02;0.85;;;;;;;30.34;34.55;98950.50;5072082;28;20284;-84
2022/09/14 10:53:35;;;;;;;1.10;1.00;;;;;;;30.46;32.80;98945.13;5074212;28;20629;-84
2022/09/14 10:56:07;;;;;;;0.90;0.90;;;;;;;30.24;33.81;98942.44;5074453;28;20226;-84
2022/09/14 10:58:56;;;;;;;0.88;0.85;;;;;;;30.50;34.67;98937.50;5074126;28;20267;-84
2022/09/14 11:01:34;;;;;;;1.27;0.80;;;;;;;30.68;34.37;98931.91;5074042;28;20233;-84
2022/09/14 11:04:20;;;;;;;1.10;1.00;;;;;;;30.60;34.41;98935.81;5074105;28;20205;-84
2022/09/14 11:06:58;;;;;;;0.85;0.85;;;;;;;30.55;35.10;98940.22;5074183;28;20218;-83
2022/09/14 11:09:31;;;;;;;0.93;0.93;;;;;;;30.60;32.44;98941.09;5073713;28;20198;-84
2022/09/14 11:12:06;;;;;;;1.38;1.00;;;;;;;30.41;34.42;98932.66;5074026;28;20225;-84
2022/09/14 11:14:55;;;;;;;2.05;1.23;;;;;;;30.56;36.42;98928.63;5074155;28;20267;-83
2022/09/14 11:17:45;;;;;;;0.88;0.80;;;;;;;30.63;34.32;98930.03;5074148;28;20206;-83
2022/09/14 11:20:30;;;;;;;0.70;0.70;;;;;;;30.62;33.32;98922.34;5073806;28;20222;-83
2022/09/14 11:23:13;;;;;;;1.45;1.05;;;;;;;30.70;34.36;98914.00;5073045;28;20221;-84
2022/09/14 11:25:45;;;;;;;1.15;1.00;;;;;;;30.35;35.36;98915.16;5073913;28;20219;-84
2022/09/14 11:28:16;;;;;;;0.80;0.80;;;;;;;30.31;34.35;98921.16;5073411;28;20203;-83
2022/09/14 11:30:50;;;;;;;0.90;0.90;;;;;;;30.13;33.31;98919.56;5073695;28;20765;-84
2022/09/14 11:33:22;;;;;;;0.95;0.90;;;;;;;30.29;34.09;98924.06;5073409;28;20235;-84
2022/09/14 11:35:55;;;;;;;1.42;1.10;;;;;;;30.29;34.35;98924.06;5073657;28;20601;-83
2022/09/14 11:38:28;;;;;;;1.20;1.10;;;;;;;30.54;35.15;98915.66;5073338;28;20199;-83
2022/09/14 11:40:59;;;;;;;1.00;0.90;;;;;;;30.58;34.55;98908.06;5073606;28;20219;-83
2022/09/14 11:43:31;;;;;;;1.08;0.98;;;;;;;30.61;33.36;98907.56;5073417;28;20214;-84
2022/09/14 11:46:07;;;;;;;1.27;1.10;;;;;;;30.62;34.56;98898.59;5073500;28;20786;-83
2022/09/14 11:48:40;;;;;;;1.02;0.93;;;;;;;30.61;33.77;98907.56;5073566;28;20256;-84